Time;durP1;ratioP1;P1;durP2;ratioP2;P2;SDS_P1;SDS_P2;PMS_P1;PMS_P2;Temp;Humidity;BMP_temperature;BMP_pressure;BME280_temperature;BME280_humidity;BME280_pressure;Samples;Min_cycle;Max_cycle;Signal;HPM_P1;HPM_P2
2022/09/12 00:01:34;;;;;;;0.47;0.47;;;10.10;99.90;;;;;;5115572;28;20058;-75
2022/09/12 00:04:01;;;;;;;0.40;0.40;;;10.10;99.90;;;;;;5115561;28;20052;-75
2022/09/12 00:06:35;;;;;;;0.75;0.70;;;10.20;99.90;;;;;;5115340;28;20507;-75
2022/09/12 00:09:05;;;;;;;0.75;0.60;;;10.10;99.90;;;;;;5115135;28;20122;-75
2022/09/12 00:11:31;;;;;;;0.50;0.50;;;;;;;;;;5097037;28;20045;-75
2022/09/12 00:14:02;;;;;;;0.52;0.52;;;10.00;99.90;;;;;;5114913;28;20063;-74
2022/09/12 00:16:31;;;;;;;0.68;0.68;;;10.00;99.90;;;;;;5115085;28;20116;-75
2022/09/12 00:18:57;;;;;;;0.77;0.75;;;10.00;99.90;;;;;;5115376;28;20024;-74
2022/09/12 00:21:23;;;;;;;4.05;0.77;;;10.00;99.90;;;;;;5115003;28;20028;-74
2022/09/12 00:23:50;;;;;;;1.17;0.75;;;10.00;99.90;;;;;;5115026;28;20018;-74
2022/09/12 00:26:20;;;;;;;2.72;1.27;;;9.90;99.90;;;;;;5096659;28;20477;-74
2022/09/12 00:28:47;;;;;;;1.08;0.50;;;9.80;99.90;;;;;;5114937;28;20107;-74
2022/09/12 00:31:16;;;;;;;0.52;0.47;;;9.70;99.90;;;;;;5096547;28;20032;-75
2022/09/12 00:33:45;;;;;;;0.50;0.50;;;9.70;99.90;;;;;;5096498;28;20563;-74
2022/09/12 00:36:16;;;;;;;1.60;0.88;;;9.70;99.90;;;;;;5114948;28;20036;-74
2022/09/12 00:38:44;;;;;;;0.43;0.43;;;9.60;99.90;;;;;;5114856;28;20016;-74
2022/09/12 00:41:37;;;;;;;0.93;0.93;;;9.60;99.90;;;;;;5115011;28;20019;-74
2022/09/12 00:44:23;;;;;;;0.80;0.80;;;9.60;99.90;;;;;;5111656;28;20529;-75
2022/09/12 00:47:04;;;;;;;0.55;0.43;;;9.60;99.90;;;;;;5114588;28;20086;-75
2022/09/12 00:49:52;;;;;;;2.13;1.15;;;9.60;99.90;;;;;;5114686;28;20084;-75
2022/09/12 00:52:46;;;;;;;0.68;0.68;;;9.60;99.90;;;;;;5114380;28;20038;-74
2022/09/12 00:55:21;;;;;;;0.50;0.50;;;9.60;99.90;;;;;;5100737;28;20034;-74
2022/09/12 00:58:01;;;;;;;0.57;0.57;;;9.60;99.90;;;;;;5114374;28;20042;-74
2022/09/12 01:00:27;;;;;;;0.65;0.65;;;9.60;99.90;;;;;;5114458;28;20372;-75
2022/09/12 01:02:59;;;;;;;0.40;0.40;;;9.60;99.90;;;;;;5114338;28;20027;-76
2022/09/12 01:05:28;;;;;;;0.38;0.38;;;9.60;99.90;;;;;;5096023;28;20044;-74
2022/09/12 01:07:56;;;;;;;0.43;0.43;;;9.50;99.90;;;;;;5114291;28;20028;-75
2022/09/12 01:10:22;;;;;;;0.82;0.82;;;9.40;99.90;;;;;;5114031;28;20392;-76
2022/09/12 01:12:49;;;;;;;0.57;0.57;;;9.40;99.90;;;;;;5114375;28;20069;-74
2022/09/12 01:15:15;;;;;;;0.50;0.50;;;9.30;99.90;;;;;;5114209;28;20487;-75
2022/09/12 01:17:59;;;;;;;2.53;0.60;;;9.30;99.90;;;;;;5114132;28;20039;-75
2022/09/12 01:20:39;;;;;;;0.57;0.57;;;9.30;99.90;;;;;;5113692;28;20536;-75
2022/09/12 01:23:18;;;;;;;0.65;0.65;;;9.40;99.90;;;;;;5114298;28;20468;-75
2022/09/12 01:26:07;;;;;;;0.50;0.45;;;9.30;99.90;;;;;;5114057;28;20016;-75
2022/09/12 01:29:01;;;;;;;0.83;0.83;;;9.30;99.90;;;;;;5112999;28;20031;-75
2022/09/12 01:31:42;;;;;;;1.42;0.70;;;9.30;99.90;;;;;;5113888;28;20089;-74
2022/09/12 01:34:50;;;;;;;0.55;0.55;;;9.10;99.90;;;;;;5113954;28;20046;-75
2022/09/12 01:37:34;;;;;;;2.50;0.85;;;9.10;99.90;;;;;;5091842;28;20040;-74
2022/09/12 01:40:20;;;;;;;0.57;0.57;;;9.10;99.90;;;;;;5114019;28;20468;-74
2022/09/12 01:43:05;;;;;;;0.82;0.73;;;9.20;99.90;;;;;;5113891;28;20020;-74
2022/09/12 01:46:04;;;;;;;0.70;0.70;;;9.30;99.90;;;;;;5113890;28;20016;-75
2022/09/12 01:48:45;;;;;;;0.82;0.82;;;9.20;99.90;;;;;;5113782;28;20035;-74
2022/09/12 01:51:32;;;;;;;0.55;0.55;;;9.20;99.90;;;;;;5113790;28;20591;-74
2022/09/12 01:54:15;;;;;;;0.90;0.50;;;9.20;99.90;;;;;;5113862;28;20024;-74
2022/09/12 01:56:43;;;;;;;1.05;0.63;;;9.10;99.90;;;;;;5113834;28;20122;-74
2022/09/12 01:59:17;;;;;;;10.15;0.80;;;9.10;99.90;;;;;;5095986;28;20019;-74
2022/09/12 02:02:12;;;;;;;0.75;0.73;;;9.10;99.90;;;;;;5113606;28;20020;-74
2022/09/12 02:04:57;;;;;;;0.73;0.73;;;9.00;99.90;;;;;;5101686;28;20050;-74
2022/09/12 02:07:37;;;;;;;0.90;0.90;;;9.00;99.90;;;;;;5113586;28;20031;-74
2022/09/12 02:10:16;;;;;;;1.27;1.25;;;9.00;99.90;;;;;;5113674;28;20020;-74
2022/09/12 02:13:14;;;;;;;0.63;0.63;;;9.00;99.90;;;;;;5113706;28;20026;-75
2022/09/12 02:15:45;;;;;;;1.55;0.80;;;8.90;99.90;;;;;;5095674;28;20016;-74
2022/09/12 02:18:14;;;;;;;1.25;0.90;;;9.00;99.90;;;;;;5113524;28;20019;-74
2022/09/12 02:20:42;;;;;;;0.50;0.50;;;9.00;99.90;;;;;;5113529;28;20011;-74
2022/09/12 02:23:12;;;;;;;0.80;0.73;;;9.00;99.90;;;;;;5113417;28;20026;-74
2022/09/12 02:25:44;;;;;;;0.88;0.88;;;9.00;99.90;;;;;;5113603;28;20027;-74
2022/09/12 02:28:15;;;;;;;0.50;0.50;;;9.00;99.90;;;;;;5113416;28;20020;-74
2022/09/12 02:30:55;;;;;;;0.43;0.43;;;9.00;99.90;;;;;;5113775;28;20036;-74
2022/09/12 02:33:31;;;;;;;1.65;0.55;;;8.90;99.90;;;;;;5117273;28;20144;-75
2022/09/12 02:36:22;;;;;;;9.52;1.40;;;;;;;;;;5117169;28;20027;-74
2022/09/12 02:38:48;;;;;;;0.75;0.75;;;8.90;99.90;;;;;;5103521;28;20028;-74
2022/09/12 02:41:19;;;;;;;2.20;0.68;;;8.90;99.90;;;;;;5117077;28;20026;-75
2022/09/12 02:43:47;;;;;;;0.90;0.90;;;8.80;99.90;;;;;;5116878;28;20012;-75
2022/09/12 02:46:24;;;;;;;0.70;0.70;;;8.80;99.90;;;;;;5117007;28;20019;-74
2022/09/12 02:48:50;;;;;;;0.35;0.35;;;8.80;99.90;;;;;;5116907;28;20024;-74
2022/09/12 02:51:22;;;;;;;3.85;0.73;;;8.90;99.90;;;;;;5116722;28;20032;-75
2022/09/12 02:53:48;;;;;;;9.50;0.47;;;8.80;99.90;;;;;;5116753;28;20018;-74
2022/09/12 02:56:22;;;;;;;0.95;0.90;;;8.80;99.90;;;;;;5116780;28;20421;-74
2022/09/12 02:58:48;;;;;;;0.25;0.25;;;8.80;99.90;;;;;;5116685;28;20016;-74
2022/09/12 03:01:22;;;;;;;0.50;0.50;;;8.80;99.90;;;;;;5116761;28;20065;-74
2022/09/12 03:03:55;;;;;;;0.55;0.45;;;8.80;99.90;;;;;;5116563;28;20031;-74
2022/09/12 03:06:34;;;;;;;0.63;0.63;;;8.80;99.90;;;;;;5116630;28;20103;-74
2022/09/12 03:09:18;;;;;;;0.50;0.50;;;8.70;99.90;;;;;;5116820;28;20432;-75
2022/09/12 03:11:49;;;;;;;0.70;0.60;;;8.60;99.90;;;;;;5098145;28;20042;-74
2022/09/12 03:14:33;;;;;;;1.10;0.65;;;8.50;99.90;;;;;;5098206;28;20102;-75
2022/09/12 03:17:08;;;;;;;0.82;0.82;;;8.50;99.90;;;;;;5116301;28;20531;-74
2022/09/12 03:19:39;;;;;;;0.65;0.65;;;8.50;99.90;;;;;;5098480;28;20031;-75
2022/09/12 03:22:12;;;;;;;0.52;0.52;;;8.50;99.90;;;;;;5116544;28;20081;-75
2022/09/12 03:24:48;;;;;;;0.80;0.80;;;8.50;99.90;;;;;;5116070;28;20023;-74
2022/09/12 03:27:28;;;;;;;0.80;0.80;;;8.50;99.90;;;;;;5116168;28;20015;-74
2022/09/12 03:29:55;;;;;;;0.55;0.55;;;8.50;99.90;;;;;;5116075;28;20026;-74
2022/09/12 03:32:39;;;;;;;0.73;0.57;;;8.50;99.90;;;;;;5115987;28;20483;-75
2022/09/12 03:35:06;;;;;;;1.10;1.10;;;8.50;99.90;;;;;;5115805;28;20375;-76
2022/09/12 03:37:31;;;;;;;0.40;0.40;;;8.50;99.90;;;;;;5115838;28;20023;-76
2022/09/12 03:39:57;;;;;;;0.57;0.57;;;8.50;99.90;;;;;;5115998;28;20069;-75
2022/09/12 03:42:23;;;;;;;0.57;0.57;;;8.50;99.90;;;;;;5115551;28;20035;-75
2022/09/12 03:44:48;;;;;;;0.57;0.57;;;8.40;99.90;;;;;;5115730;28;20028;-75
2022/09/12 03:47:14;;;;;;;0.88;0.68;;;8.40;99.90;;;;;;5115947;28;20027;-75
2022/09/12 03:49:40;;;;;;;1.70;1.60;;;8.50;99.90;;;;;;5097431;28;20073;-75
2022/09/12 03:52:06;;;;;;;0.60;0.60;;;8.50;99.90;;;;;;5097228;28;20027;-76
2022/09/12 03:54:31;;;;;;;2.75;0.98;;;8.40;99.90;;;;;;5115615;28;20047;-75
2022/09/12 03:56:57;;;;;;;0.70;0.60;;;8.40;99.90;;;;;;5115519;28;20464;-75
2022/09/12 03:59:23;;;;;;;0.60;0.60;;;;;;;;;;5115697;28;20019;-75
2022/09/12 04:01:49;;;;;;;0.25;0.25;;;8.30;99.90;;;;;;5115542;28;20023;-75
2022/09/12 04:04:15;;;;;;;1.15;0.70;;;8.30;99.90;;;;;;5093591;28;20043;-75
2022/09/12 04:06:41;;;;;;;0.57;0.57;;;8.30;99.90;;;;;;5095156;28;20028;-75
2022/09/12 04:09:07;;;;;;;0.63;0.63;;;8.30;99.90;;;;;;5093722;28;20023;-75
2022/09/12 04:11:34;;;;;;;0.40;0.40;;;8.30;99.90;;;;;;5094840;28;20536;-75
2022/09/12 04:14:00;;;;;;;0.57;0.47;;;8.20;99.90;;;;;;5094727;28;20094;-74
2022/09/12 04:16:26;;;;;;;0.52;0.52;;;8.20;99.90;;;;;;5094899;28;20054;-75
2022/09/12 04:18:52;;;;;;;0.50;0.50;;;8.10;99.90;;;;;;5095030;28;20048;-76
2022/09/12 04:21:20;;;;;;;0.50;0.50;;;8.10;99.90;;;;;;5094785;28;20031;-75
2022/09/12 04:23:47;;;;;;;0.95;0.93;;;8.10;99.90;;;;;;5094873;28;20027;-75
2022/09/12 04:26:13;;;;;;;0.75;0.75;;;8.10;99.90;;;;;;5094605;28;20081;-75
2022/09/12 04:28:40;;;;;;;0.70;0.63;;;8.10;99.90;;;;;;5093399;28;20487;-75
2022/09/12 04:31:17;;;;;;;2.70;1.55;;;8.10;99.90;;;;;;5095577;28;20473;-76
2022/09/12 04:33:44;;;;;;;0.90;0.90;;;8.10;99.90;;;;;;5097206;28;20031;-75
2022/09/12 04:36:15;;;;;;;1.30;0.95;;;8.20;99.90;;;;;;5096741;28;20024;-76
2022/09/12 04:38:46;;;;;;;4.65;1.15;;;8.30;99.90;;;;;;5095945;28;20058;-76
2022/09/12 04:41:27;;;;;;;0.90;0.90;;;8.40;99.90;;;;;;5097035;28;20047;-77
2022/09/12 04:44:01;;;;;;;0.65;0.52;;;7.80;99.90;;;;;;5094493;28;20027;-76
2022/09/12 04:46:32;;;;;;;0.73;0.73;;;8.40;99.90;;;;;;5093299;28;20062;-74
2022/09/12 04:48:57;;;;;;;1.35;1.25;;;8.30;99.90;;;;;;5094928;28;20020;-74
2022/09/12 04:51:29;;;;;;;0.43;0.43;;;8.30;99.90;;;;;;5094563;28;20489;-74
2022/09/12 04:53:58;;;;;;;1.20;1.08;;;8.20;99.90;;;;;;5094040;28;20036;-75
2022/09/12 04:56:25;;;;;;;0.52;0.50;;;8.20;99.90;;;;;;5093959;28;20103;-75
2022/09/12 04:58:51;;;;;;;1.00;0.98;;;;;;;;;;5094116;28;20028;-75
2022/09/12 05:01:20;;;;;;;1.65;1.38;;;8.20;99.90;;;;;;5094621;28;20028;-75
2022/09/12 05:03:49;;;;;;;1.27;1.17;;;8.40;99.90;;;;;;5097604;28;20028;-75
2022/09/12 05:06:17;;;;;;;0.70;0.70;;;8.50;99.90;;;;;;5114337;28;20019;-75
2022/09/12 05:08:43;;;;;;;0.90;0.88;;;8.50;99.90;;;;;;5114235;28;20533;-75
2022/09/12 05:11:17;;;;;;;1.00;0.95;;;8.50;99.90;;;;;;5096045;28;20076;-74
2022/09/12 05:13:43;;;;;;;5.38;1.60;;;8.50;99.90;;;;;;5114486;28;20033;-75
2022/09/12 05:16:11;;;;;;;1.60;1.02;;;8.50;99.90;;;;;;5114274;28;20400;-75
2022/09/12 05:18:37;;;;;;;0.88;0.80;;;8.30;99.90;;;;;;5114095;28;20490;-74
2022/09/12 05:21:08;;;;;;;1.17;1.15;;;8.30;99.90;;;;;;5114120;28;20080;-75
2022/09/12 05:23:34;;;;;;;1.23;0.80;;;8.30;99.90;;;;;;5114244;28;20048;-75
2022/09/12 05:26:01;;;;;;;3.42;1.38;;;8.30;99.90;;;;;;5113981;28;20032;-75
2022/09/12 05:28:34;;;;;;;1.58;1.13;;;8.40;99.90;;;;;;5114304;28;20023;-76
2022/09/12 05:31:00;;;;;;;1.58;1.48;;;8.50;99.90;;;;;;5113930;28;20038;-74
2022/09/12 05:33:26;;;;;;;0.88;0.88;;;8.50;99.90;;;;;;5115581;28;20031;-75
2022/09/12 05:35:52;;;;;;;0.73;0.73;;;8.50;99.90;;;;;;5114123;28;20437;-76
2022/09/12 05:38:18;;;;;;;1.23;1.02;;;8.50;99.90;;;;;;5114022;28;20028;-76
2022/09/12 05:40:44;;;;;;;3.38;2.35;;;8.50;99.90;;;;;;5113848;28;20027;-75
2022/09/12 05:43:11;;;;;;;2.13;0.75;;;8.50;99.90;;;;;;5118818;28;20464;-75
2022/09/12 05:45:37;;;;;;;0.85;0.70;;;8.50;99.90;;;;;;5118023;28;20027;-75
2022/09/12 05:48:03;;;;;;;1.33;0.93;;;8.60;99.90;;;;;;5114922;28;20020;-77
2022/09/12 05:50:29;;;;;;;0.90;0.70;;;8.60;99.90;;;;;;5115475;28;20038;-75
2022/09/12 05:52:58;;;;;;;2.15;0.80;;;8.70;99.90;;;;;;5118744;28;20053;-75
2022/09/12 05:55:24;;;;;;;0.87;0.87;;;8.70;99.90;;;;;;5114467;28;20106;-77
2022/09/12 05:57:50;;;;;;;0.90;0.80;;;8.80;99.90;;;;;;5113706;28;20300;-75
2022/09/12 06:00:20;;;;;;;3.17;1.38;;;8.90;99.90;;;;;;5095489;28;20426;-74
2022/09/12 06:02:50;;;;;;;;;;;9.10;99.90;;;;;;5114378;28;20161;-73
2022/09/12 06:05:17;;;;;;;1.15;0.98;;;9.20;99.90;;;;;;5113493;28;20183;-73
2022/09/12 06:07:45;;;;;;;0.88;0.88;;;9.40;99.90;;;;;;5117374;28;20015;-73
2022/09/12 06:10:14;;;;;;;1.70;0.98;;;9.40;99.90;;;;;;5117528;28;20106;-75
2022/09/12 06:12:42;;;;;;;1.23;1.17;;;9.50;99.90;;;;;;5117640;28;20023;-73
2022/09/12 06:15:08;;;;;;;5.15;1.38;;;9.70;99.90;;;;;;5117383;28;20019;-74
2022/09/12 06:17:37;;;;;;;1.85;1.05;;;9.70;99.90;;;;;;5117558;28;20049;-74
2022/09/12 06:20:03;;;;;;;1.98;1.13;;;9.70;99.90;;;;;;5117721;28;20012;-74
2022/09/12 06:22:29;;;;;;;1.67;1.10;;;9.80;99.90;;;;;;5117374;28;20051;-74
2022/09/12 06:24:55;;;;;;;0.70;0.65;;;10.00;99.90;;;;;;5117277;28;20016;-75
2022/09/12 06:27:21;;;;;;;2.28;1.33;;;10.10;99.90;;;;;;5117445;28;20028;-74
2022/09/12 06:29:47;;;;;;;3.08;1.35;;;;;;;;;;5099457;28;20119;-74
2022/09/12 06:32:19;;;;;;;1.23;1.13;;;10.30;99.90;;;;;;5117157;28;20115;-74
2022/09/12 06:34:46;;;;;;;3.97;2.13;;;10.40;99.90;;;;;;5117234;28;20020;-75
2022/09/12 06:37:12;;;;;;;1.90;1.52;;;10.50;99.90;;;;;;5098283;28;20117;-74
2022/09/12 06:39:38;;;;;;;2.33;2.13;;;10.80;99.90;;;;;;5116946;28;20148;-73
2022/09/12 06:42:04;;;;;;;2.72;1.73;;;10.70;99.90;;;;;;5117340;28;20069;-73
2022/09/12 06:44:30;;;;;;;2.38;2.17;;;10.80;99.90;;;;;;5117184;28;20024;-73
2022/09/12 06:46:57;;;;;;;2.67;2.10;;;10.90;99.90;;;;;;5116898;28;20020;-75
2022/09/12 06:49:23;;;;;;;6.75;2.28;;;10.90;99.90;;;;;;5116918;28;20020;-75
2022/09/12 06:51:48;;;;;;;3.60;2.08;;;11.10;99.90;;;;;;5116731;28;20031;-73
2022/09/12 06:54:15;;;;;;;2.42;2.28;;;11.10;99.90;;;;;;5116730;28;20023;-73
2022/09/12 06:56:41;;;;;;;2.55;1.90;;;11.20;99.90;;;;;;5116650;28;20024;-73
2022/09/12 06:59:07;;;;;;;3.85;2.42;;;11.20;99.90;;;;;;5116685;28;20030;-73
2022/09/12 07:01:33;;;;;;;2.83;2.42;;;;;;;;;;5116725;28;20049;-73
2022/09/12 07:04:01;;;;;;;6.00;2.85;;;11.40;99.90;;;;;;5116554;28;20395;-74
2022/09/12 07:06:32;;;;;;;2.95;2.35;;;11.50;99.90;;;;;;5116645;28;20058;-74
2022/09/12 07:08:59;;;;;;;2.92;2.03;;;11.60;99.90;;;;;;5116566;28;20481;-75
2022/09/12 07:11:27;;;;;;;2.47;1.65;;;11.60;99.90;;;;;;5116351;28;20113;-74
2022/09/12 07:13:55;;;;;;;2.53;1.95;;;11.80;99.90;;;;;;5116378;28;20447;-73
2022/09/12 07:16:21;;;;;;;3.28;2.47;;;11.90;99.90;;;;;;5116194;28;20019;-74
2022/09/12 07:18:59;;;;;;;4.78;2.15;;;12.10;99.90;;;;;;5115369;28;20023;-73
2022/09/12 07:21:26;;;;;;;2.13;1.80;;;12.20;99.90;;;;;;5116318;28;20023;-73
2022/09/12 07:23:54;;;;;;;2.38;1.48;;;12.20;99.90;;;;;;5116264;28;20015;-74
2022/09/12 07:26:20;;;;;;;1.90;1.60;;;12.40;99.90;;;;;;5116189;28;20353;-73
2022/09/12 07:28:52;;;;;;;1.58;1.48;;;12.50;99.90;;;;;;5116043;28;20019;-73
2022/09/12 07:31:20;;;;;;;1.45;1.35;;;12.50;99.90;;;;;;5115831;28;20080;-73
2022/09/12 07:33:46;;;;;;;1.90;1.80;;;12.60;99.90;;;;;;5115947;28;20019;-74
2022/09/12 07:36:18;;;;;;;2.45;1.92;;;12.70;99.90;;;;;;5097626;28;20111;-73
2022/09/12 07:38:45;;;;;;;3.13;2.40;;;12.90;99.90;;;;;;5115999;28;20538;-73
2022/09/12 07:41:18;;;;;;;4.32;1.50;;;13.00;99.90;;;;;;5116160;28;20019;-74
2022/09/12 07:43:44;;;;;;;3.55;1.83;;;13.10;99.90;;;;;;5116029;28;20098;-74
2022/09/12 07:46:10;;;;;;;4.18;3.67;;;13.30;99.90;;;;;;5115744;28;20022;-73
2022/09/12 07:48:37;;;;;;;4.32;2.47;;;13.40;99.90;;;;;;5115719;28;20098;-74
2022/09/12 07:51:06;;;;;;;1.85;1.75;;;13.60;99.90;;;;;;5115472;28;20495;-75
2022/09/12 07:53:40;;;;;;;2.47;1.67;;;13.70;99.90;;;;;;5115610;28;20496;-74
2022/09/12 07:56:09;;;;;;;13.02;3.42;;;13.90;99.90;;;;;;5115697;28;20023;-74
2022/09/12 07:58:35;;;;;;;1.97;1.37;;;14.00;99.90;;;;;;5115648;28;20055;-74
2022/09/12 08:01:07;;;;;;;1.98;1.65;;;14.10;99.90;;;;;;5115418;28;20042;-73
2022/09/12 08:03:33;;;;;;;1.10;1.08;;;14.20;99.90;;;;;;5115336;28;20106;-74
2022/09/12 08:06:20;;;;;;;1.20;1.10;;;14.40;99.90;;;;;;5115277;28;20028;-74
2022/09/12 08:08:47;;;;;;;3.13;2.42;;;14.40;99.90;;;;;;5113397;28;20026;-75
2022/09/12 08:11:15;;;;;;;2.33;1.42;;;14.40;99.90;;;;;;5106169;28;20064;-74
2022/09/12 08:13:43;;;;;;;7.97;5.07;;;14.50;99.90;;;;;;5116599;28;20019;-75
2022/09/12 08:16:17;;;;;;;3.35;1.65;;;14.60;99.90;;;;;;5124469;28;20087;-73
2022/09/12 08:18:43;;;;;;;1.33;1.23;;;14.70;99.90;;;;;;5123768;28;20075;-74
2022/09/12 08:21:30;;;;;;;9.25;2.40;;;14.80;99.90;;;;;;5117837;28;20117;-73
2022/09/12 08:24:04;;;;;;;1.30;1.20;;;15.10;99.90;;;;;;5119446;28;20057;-73
2022/09/12 08:26:31;;;;;;;0.82;0.82;;;15.60;99.90;;;;;;5121092;28;20019;-73
2022/09/12 08:28:57;;;;;;;1.02;0.95;;;16.70;99.90;;;;;;5122685;28;20015;-73
2022/09/12 08:31:25;;;;;;;1.45;1.20;;;18.90;99.90;;;;;;5124101;28;20042;-74
2022/09/12 08:33:53;;;;;;;3.25;1.48;;;19.00;99.90;;;;;;5124110;28;20019;-74
2022/09/12 08:36:22;;;;;;;5.72;2.17;;;19.80;99.90;;;;;;5124089;28;20024;-73
2022/09/12 08:38:50;;;;;;;8.15;1.30;;;20.60;99.90;;;;;;5124550;28;20024;-74
2022/09/12 08:41:36;;;;;;;5.97;1.20;;;20.20;99.90;;;;;;5124026;28;20087;-74
2022/09/12 08:44:20;;;;;;;1.85;1.50;;;20.90;99.90;;;;;;5124371;28;20030;-73
2022/09/12 08:47:04;;;;;;;32.97;5.47;;;20.40;99.90;;;;;;5122575;28;20034;-73
2022/09/12 08:50:01;;;;;;;0.90;0.70;;;20.60;99.90;;;;;;5106126;28;20051;-76
2022/09/12 08:52:57;;;;;;;1.00;0.82;;;20.50;99.90;;;;;;5090364;28;20053;-74
2022/09/12 08:55:30;;;;;;;1.13;0.90;;;20.20;99.90;;;;;;5093168;28;20032;-73
2022/09/12 08:57:58;;;;;;;23.42;7.78;;;19.90;99.90;;;;;;5114116;28;20421;-73
2022/09/12 09:00:39;;;;;;;0.50;0.50;;;19.70;99.90;;;;;;5113978;28;20026;-72
2022/09/12 09:03:05;;;;;;;2.10;1.48;;;19.90;99.90;;;;;;5095815;28;20034;-73
2022/09/12 09:05:58;;;;;;;0.50;0.50;;;19.90;99.90;;;;;;5114003;28;20043;-74
2022/09/12 09:08:27;;;;;;;1.25;0.57;;;20.10;99.90;;;;;;5113983;28;20024;-73
2022/09/12 09:11:09;;;;;;;0.70;0.55;;;20.60;99.90;;;;;;5114110;28;20036;-74
2022/09/12 09:16:49;;;;;;;0.40;0.40;;;21.60;99.90;;;;;;5113981;28;20074;-74
2022/09/12 09:19:20;;;;;;;2.25;1.15;;;22.00;99.90;;;;;;5113777;28;20022;-73
2022/09/12 09:21:55;;;;;;;0.57;0.32;;;22.20;99.90;;;;;;5113956;28;20015;-73
2022/09/12 09:24:27;;;;;;;0.70;0.50;;;22.10;99.90;;;;;;5114289;28;20064;-74
2022/09/12 09:27:18;;;;;;;1.10;0.73;;;21.80;99.90;;;;;;5113944;28;20028;-74
2022/09/12 09:29:49;;;;;;;0.85;0.85;;;21.40;99.90;;;;;;5102392;28;20484;-74
2022/09/12 09:32:25;;;;;;;0.50;0.50;;;21.30;99.90;;;;;;5095372;28;20067;-73
2022/09/12 09:34:52;;;;;;;9.27;3.67;;;21.60;99.90;;;;;;5095381;28;20387;-73
2022/09/12 09:37:40;;;;;;;1.08;1.08;;;21.70;99.90;;;;;;5113333;28;20027;-73
2022/09/12 09:40:42;;;;;;;1.38;0.47;;;22.10;99.90;;;;;;5113517;28;20472;-73
2022/09/12 09:43:24;;;;;;;0.73;0.35;;;22.00;99.90;;;;;;5100370;28;20027;-74
2022/09/12 09:45:51;;;;;;;1.38;1.05;;;22.00;99.90;;;;;;5099868;28;20519;-73
2022/09/12 09:48:21;;;;;;;0.43;0.43;;;22.10;99.90;;;;;;5099038;28;20047;-74
2022/09/12 09:50:48;;;;;;;0.28;0.28;;;22.30;99.90;;;;;;5116997;28;20043;-75
2022/09/12 09:53:25;;;;;;;0.13;0.13;;;22.70;99.90;;;;;;5116993;28;20019;-74
2022/09/12 09:55:54;;;;;;;15.88;3.13;;;22.30;99.90;;;;;;5098733;28;20072;-74
2022/09/12 09:58:34;;;;;;;1.50;0.70;;;22.10;99.90;;;;;;5116696;28;20031;-74
2022/09/12 10:01:03;;;;;;;7.38;0.75;;;22.00;99.90;;;;;;5117022;28;20472;-74
2022/09/12 10:03:31;;;;;;;0.30;0.30;;;22.00;99.90;;;;;;5098332;28;20024;-74
2022/09/12 10:06:31;;;;;;;0.30;0.30;;;22.20;99.90;;;;;;5098982;28;20057;-75
2022/09/12 10:09:07;;;;;;;0.65;0.65;;;22.30;99.90;;;;;;5116720;28;20016;-74
2022/09/12 10:11:39;;;;;;;24.90;2.72;;;22.50;99.90;;;;;;5116762;28;20032;-74
2022/09/12 10:14:23;;;;;;;20.33;2.83;;;22.40;99.90;;;;;;5116885;28;20020;-74
2022/09/12 10:16:53;;;;;;;0.50;0.50;;;22.30;99.90;;;;;;5117183;28;20146;-74
2022/09/12 10:19:38;;;;;;;0.22;0.20;;;22.30;99.90;;;;;;5098803;28;20032;-74
2022/09/12 10:22:05;;;;;;;0.38;0.38;;;22.10;99.90;;;;;;5098867;28;20020;-74
2022/09/12 10:24:38;;;;;;;1.10;0.57;;;22.10;99.90;;;;;;5117367;28;20026;-75
2022/09/12 10:27:19;;;;;;;2.50;1.67;;;22.30;99.90;;;;;;5117381;28;20129;-74
2022/09/12 10:29:53;;;;;;;0.45;0.45;;;22.20;99.90;;;;;;5098607;28;20032;-75
2022/09/12 10:32:49;;;;;;;0.60;0.40;;;22.30;99.90;;;;;;5098397;28;20039;-75
2022/09/12 10:35:16;;;;;;;0.13;0.13;;;22.50;99.90;;;;;;5114580;28;20032;-74
2022/09/12 10:38:09;;;;;;;178.40;33.53;;;22.50;99.90;;;;;;5098437;28;20114;-74
2022/09/12 10:40:40;;;;;;;1.45;0.57;;;22.60;99.90;;;;;;5097434;28;20031;-75
2022/09/12 10:43:26;;;;;;;0.75;0.30;;;23.00;99.90;;;;;;5116824;28;20063;-74
2022/09/12 10:46:15;;;;;;;0.20;0.20;;;23.10;99.90;;;;;;5116712;28;20028;-75
2022/09/12 10:48:42;;;;;;;7.05;1.65;;;23.10;99.90;;;;;;5097727;28;20758;-74
2022/09/12 10:51:28;;;;;;;0.55;0.40;;;22.90;99.90;;;;;;5116469;28;20036;-74
2022/09/12 10:53:59;;;;;;;84.72;12.70;;;22.70;99.90;;;;;;5115090;28;20059;-74
2022/09/12 10:56:31;;;;;;;3.90;1.55;;;22.70;99.20;;;;;;5098180;28;20110;-74
2022/09/12 10:59:21;;;;;;;4.13;0.55;;;22.60;99.90;;;;;;5116531;28;20369;-74
2022/09/12 11:02:13;;;;;;;0.80;0.50;;;22.70;99.90;;;;;;5116288;28;20436;-75
2022/09/12 11:04:57;;;;;;;3.03;0.50;;;22.80;98.90;;;;;;5098187;28;20396;-74
2022/09/12 11:07:39;;;;;;;2.28;0.77;;;22.80;99.90;;;;;;5097989;28;20093;-74
2022/09/12 11:10:42;;;;;;;0.28;0.28;;;22.60;99.90;;;;;;5116059;28;20055;-74
2022/09/12 11:13:32;;;;;;;1.88;0.75;;;22.70;99.90;;;;;;5097758;28;20035;-74
2022/09/12 11:16:21;;;;;;;0.35;0.35;;;22.50;99.90;;;;;;5097841;28;20387;-74
2022/09/12 11:19:21;;;;;;;0.20;0.20;;;22.40;99.30;;;;;;5097896;28;20028;-74
2022/09/12 11:21:56;;;;;;;0.40;0.40;;;22.50;99.90;;;;;;5116032;28;20031;-74
2022/09/12 11:24:35;;;;;;;0.15;0.15;;;22.50;97.10;;;;;;5097728;28;20117;-74
2022/09/12 11:27:21;;;;;;;0.13;0.13;;;22.60;97.80;;;;;;5097622;28;20035;-74
2022/09/12 11:30:13;;;;;;;0.20;0.20;;;22.60;98.40;;;;;;5115899;28;20043;-72
2022/09/12 11:33:21;;;;;;;0.20;0.20;;;22.80;98.40;;;;;;5115797;28;20038;-74
2022/09/12 11:35:50;;;;;;;0.13;0.13;;;22.80;98.90;;;;;;5115744;28;20020;-74
2022/09/12 11:38:28;;;;;;;0.60;0.60;;;22.90;97.80;;;;;;5115763;28;20050;-75
2022/09/12 11:40:59;;;;;;;2.72;0.50;;;23.00;99.70;;;;;;5097223;28;20034;-75
2022/09/12 11:43:35;;;;;;;0.85;0.30;;;23.00;99.00;;;;;;5097254;28;20065;-75
2022/09/12 11:46:27;;;;;;;0.20;0.20;;;23.30;96.80;;;;;;5115650;28;20083;-74
2022/09/12 11:49:08;;;;;;;0.47;0.25;;;23.50;95.30;;;;;;5115361;28;20055;-74
2022/09/12 11:51:47;;;;;;;0.52;0.40;;;24.00;94.80;;;;;;5115189;28;20035;-74
2022/09/12 11:54:37;;;;;;;0.15;0.15;;;25.10;87.40;;;;;;5115358;28;20026;-75
2022/09/12 11:57:14;;;;;;;0.10;0.10;;;26.50;78.80;;;;;;5115224;28;20053;-75
2022/09/12 12:00:04;;;;;;;0.60;0.60;;;27.90;59.50;;;;;;5115285;28;20034;-74
2022/09/12 12:02:49;;;;;;;0.10;0.10;;;28.90;55.60;;;;;;5083995;28;20074;-75
2022/09/12 12:05:43;;;;;;;0.10;0.10;;;29.70;55.90;;;;;;5096272;28;20052;-75
2022/09/12 12:08:11;;;;;;;0.30;0.30;;;29.70;58.80;;;;;;5105481;28;20035;-75
2022/09/12 12:10:36;;;;;;;0.30;0.30;;;29.50;56.10;;;;;;5096553;28;20023;-74
2022/09/12 12:13:06;;;;;;;0.50;0.17;;;29.80;57.30;;;;;;5114808;28;20469;-75
2022/09/12 12:15:35;;;;;;;0.00;0.00;;;30.50;55.30;;;;;;5114773;28;20027;-74
2022/09/12 12:18:05;;;;;;;0.30;0.30;;;30.90;53.40;;;;;;5096531;28;20479;-75
2022/09/12 12:20:31;;;;;;;0.10;0.10;;;31.50;54.10;;;;;;5114570;28;20042;-75
2022/09/12 12:22:58;;;;;;;0.40;0.40;;;32.50;52.10;;;;;;5114817;28;20392;-74
2022/09/12 12:25:57;;;;;;;0.20;0.20;;;33.00;50.00;;;;;;5114912;28;20123;-74
2022/09/12 12:28:43;;;;;;;0.08;0.08;;;33.40;48.10;;;;;;5112285;28;20059;-75
2022/09/12 12:31:09;;;;;;;0.85;0.57;;;33.00;46.90;;;;;;5105062;28;20270;-75
2022/09/12 12:33:38;;;;;;;0.98;0.40;;;33.00;47.70;;;;;;5104610;28;20027;-74
2022/09/12 12:36:08;;;;;;;0.00;0.00;;;33.70;45.50;;;;;;5124526;28;20211;-74
2022/09/12 12:38:37;;;;;;;0.30;0.30;;;33.30;47.80;;;;;;5123004;28;20020;-74
2022/09/12 12:41:15;;;;;;;0.10;0.10;;;32.60;49.70;;;;;;5121073;28;20019;-74
2022/09/12 12:43:45;;;;;;;0.10;0.10;;;33.50;46.90;;;;;;5122276;28;20079;-74
2022/09/12 12:46:34;;;;;;;0.10;0.10;;;33.70;45.10;;;;;;5117058;28;20047;-75
2022/09/12 12:49:09;;;;;;;0.30;0.30;;;34.20;46.20;;;;;;5114279;28;20464;-75
2022/09/12 12:51:53;;;;;;;0.25;0.05;;;34.80;45.90;;;;;;5114429;28;20035;-76
2022/09/12 12:54:41;;;;;;;0.45;0.45;;;35.90;45.10;;;;;;5114552;28;20024;-75
2022/09/12 12:57:18;;;;;;;0.10;0.10;;;35.70;45.40;;;;;;5114106;28;20430;-76
2022/09/12 12:59:55;;;;;;;0.00;0.00;;;35.20;44.00;;;;;;5096020;28;20031;-74
2022/09/12 13:02:41;;;;;;;0.10;0.10;;;34.90;44.40;;;;;;5114010;28;20020;-74
2022/09/12 13:05:19;;;;;;;1.05;0.25;;;34.10;42.70;;;;;;5113859;28;20082;-74
2022/09/12 13:07:46;;;;;;;;;;;33.70;44.40;;;;;;5114554;28;20027;-74
2022/09/12 13:10:28;;;;;;;1.67;0.47;;;32.10;46.30;;;;;;5095417;28;19903;-74
2022/09/12 13:12:56;;;;;;;0.20;0.10;;;32.00;47.20;;;;;;5113906;28;20508;-74
2022/09/12 13:15:37;;;;;;;0.30;0.20;;;31.80;46.40;;;;;;5113585;28;20073;-73
2022/09/12 13:18:24;;;;;;;0.20;0.20;;;31.20;47.70;;;;;;5113947;28;20023;-74
2022/09/12 13:21:11;;;;;;;0.15;0.10;;;31.30;46.30;;;;;;5113982;28;20027;-74
2022/09/12 13:23:37;;;;;;;0.13;0.13;;;31.70;49.00;;;;;;5113873;28;20046;-75
2022/09/12 13:26:09;;;;;;;0.20;0.20;;;31.80;46.00;;;;;;5113856;28;20376;-74
2022/09/12 13:28:35;;;;;;;0.20;0.17;;;31.80;47.50;;;;;;5113893;28;20098;-76
2022/09/12 13:31:29;;;;;;;0.10;0.10;;;32.30;45.70;;;;;;5113563;28;20106;-75